NZLF weather

Rotorua Lakefront Heliport
Rotorua, Bay of Plenty Region, New Zealand

Public forecast

Using degrees Celsius for public forecast. Weather courtesy of forecast.io.

METAR (pilot weather report)

Closest report is Auckland International Airport, 96.8 nm (179.2 km) NW. Retrieved 2019/09/23 16:30 UTC (0 seconds ago):

NZAA 231630Z AUTO 34012KT 310V010 9999 -RA BKN028/// BKN036/// 13/12 Q1010 TEMPO 6000 RA BKN014

TAF (pilot weather forecast)

Closest forecast is Auckland International Airport, 96.8 nm (179.2 km) NW. Retrieved 2019/09/23 12:12 UTC (4 hours ago):

TAF TAF NZAA 231109Z 2312/2412 34012KT 9999 -RA BKN040 TEMPO 2316/2321 6000 RA BKN014 FM231800 33015G30KT 9999 -RA FEW014 BKN020 TEMPO 2321/2400 4000 +RA BKN012 SCT020TCU PROB30 TEMPO 2321/2400 33025G45KT 2500 TSRA BKN009 FEW020CB FM240000 23020G35KT 9999 -SHRA SCT020 BKN030 TEMPO 2403/2412 6000 SHRA BECMG 2406/2408 26015G25KT